sensor_id;sensor_type;location;lat;lon;timestamp;temperature;humidity
25248;DHT22;13191;47.472;11.214;2023-03-12T00:01:20;2.10;99.90
25248;DHT22;13191;47.472;11.214;2023-03-12T00:03:46;2.20;99.90
25248;DHT22;13191;47.472;11.214;2023-03-12T00:06:12;2.10;99.90
25248;DHT22;13191;47.472;11.214;2023-03-12T00:08:38;2.10;99.90
25248;DHT22;13191;47.472;11.214;2023-03-12T00:11:07;2.10;99.90
25248;DHT22;13191;47.472;11.214;2023-03-12T00:13:33;2.10;99.90
25248;DHT22;13191;47.472;11.214;2023-03-12T00:16:02;2.10;99.90
25248;DHT22;13191;47.472;11.214;2023-03-12T00:18:28;2.10;99.90
25248;DHT22;13191;47.472;11.214;2023-03-12T00:20:53;2.10;99.90
25248;DHT22;13191;47.472;11.214;2023-03-12T00:23:19;2.10;99.90
25248;DHT22;13191;47.472;11.214;2023-03-12T00:25:44;2.00;99.90
25248;DHT22;13191;47.472;11.214;2023-03-12T00:28:10;2.00;99.90
25248;DHT22;13191;47.472;11.214;2023-03-12T00:30:36;1.90;99.90
25248;DHT22;13191;47.472;11.214;2023-03-12T00:33:01;2.00;99.90
25248;DHT22;13191;47.472;11.214;2023-03-12T00:35:27;2.00;99.90
25248;DHT22;13191;47.472;11.214;2023-03-12T00:37:52;2.10;99.90
25248;DHT22;13191;47.472;11.214;2023-03-12T00:40:18;2.10;99.90
25248;DHT22;13191;47.472;11.214;2023-03-12T00:42:43;2.10;99.90
25248;DHT22;13191;47.472;11.214;2023-03-12T00:45:09;2.20;99.90
25248;DHT22;13191;47.472;11.214;2023-03-12T00:47:35;2.20;99.90
25248;DHT22;13191;47.472;11.214;2023-03-12T00:50:00;2.20;99.90
25248;DHT22;13191;47.472;11.214;2023-03-12T00:52:25;2.20;99.90
25248;DHT22;13191;47.472;11.214;2023-03-12T00:54:51;2.30;99.90
25248;DHT22;13191;47.472;11.214;2023-03-12T00:57:16;2.30;99.90
25248;DHT22;13191;47.472;11.214;2023-03-12T00:59:42;2.30;99.90
25248;DHT22;13191;47.472;11.214;2023-03-12T01:02:07;2.30;99.90
25248;DHT22;13191;47.472;11.214;2023-03-12T01:04:33;2.30;99.90
25248;DHT22;13191;47.472;11.214;2023-03-12T01:06:58;2.30;99.90
25248;DHT22;13191;47.472;11.214;2023-03-12T01:09:24;2.30;99.90
25248;DHT22;13191;47.472;11.214;2023-03-12T01:11:50;2.30;99.90
25248;DHT22;13191;47.472;11.214;2023-03-12T01:14:15;2.30;99.90
25248;DHT22;13191;47.472;11.214;2023-03-12T01:16:41;2.30;99.90
25248;DHT22;13191;47.472;11.214;2023-03-12T01:19:06;2.30;99.90
25248;DHT22;13191;47.472;11.214;2023-03-12T01:21:32;2.20;99.90
25248;DHT22;13191;47.472;11.214;2023-03-12T01:23:57;2.20;99.90
25248;DHT22;13191;47.472;11.214;2023-03-12T01:26:23;2.20;99.90
25248;DHT22;13191;47.472;11.214;2023-03-12T01:28:49;2.20;99.90
25248;DHT22;13191;47.472;11.214;2023-03-12T01:31:15;2.30;99.90
25248;DHT22;13191;47.472;11.214;2023-03-12T01:33:43;2.20;99.90
25248;DHT22;13191;47.472;11.214;2023-03-12T01:36:16;2.20;99.90
25248;DHT22;13191;47.472;11.214;2023-03-12T01:38:42;2.20;99.90
25248;DHT22;13191;47.472;11.214;2023-03-12T01:41:07;2.30;99.90
25248;DHT22;13191;47.472;11.214;2023-03-12T01:43:34;2.30;99.90
25248;DHT22;13191;47.472;11.214;2023-03-12T01:51:31;2.30;99.90
25248;DHT22;13191;47.472;11.214;2023-03-12T01:53:58;2.20;99.90
25248;DHT22;13191;47.472;11.214;2023-03-12T01:56:26;2.20;99.90
25248;DHT22;13191;47.472;11.214;2023-03-12T01:58:53;2.20;99.90
25248;DHT22;13191;47.472;11.214;2023-03-12T02:01:19;2.20;99.90
25248;DHT22;13191;47.472;11.214;2023-03-12T02:03:46;2.10;99.90
25248;DHT22;13191;47.472;11.214;2023-03-12T02:06:12;2.10;99.90
25248;DHT22;13191;47.472;11.214;2023-03-12T02:08:40;2.20;99.90
25248;DHT22;13191;47.472;11.214;2023-03-12T02:11:06;2.20;99.90
25248;DHT22;13191;47.472;11.214;2023-03-12T02:13:31;2.20;99.90
25248;DHT22;13191;47.472;11.214;2023-03-12T02:15:57;2.30;99.90
25248;DHT22;13191;47.472;11.214;2023-03-12T02:18:23;2.20;99.90
25248;DHT22;13191;47.472;11.214;2023-03-12T02:23:25;2.20;99.90
25248;DHT22;13191;47.472;11.214;2023-03-12T02:25:51;2.20;99.90
25248;DHT22;13191;47.472;11.214;2023-03-12T02:28:19;2.20;99.90
25248;DHT22;13191;47.472;11.214;2023-03-12T02:30:46;2.20;99.90
25248;DHT22;13191;47.472;11.214;2023-03-12T02:33:13;2.20;99.90
25248;DHT22;13191;47.472;11.214;2023-03-12T02:35:41;2.20;99.90
25248;DHT22;13191;47.472;11.214;2023-03-12T02:40:51;2.30;99.90
25248;DHT22;13191;47.472;11.214;2023-03-12T02:43:18;2.20;99.90
25248;DHT22;13191;47.472;11.214;2023-03-12T02:45:44;2.20;99.90
25248;DHT22;13191;47.472;11.214;2023-03-12T02:48:10;2.20;99.90
25248;DHT22;13191;47.472;11.214;2023-03-12T02:50:35;2.20;99.90
25248;DHT22;13191;47.472;11.214;2023-03-12T02:53:01;2.20;99.90
25248;DHT22;13191;47.472;11.214;2023-03-12T02:55:26;2.20;99.90
25248;DHT22;13191;47.472;11.214;2023-03-12T02:57:52;2.10;99.90
25248;DHT22;13191;47.472;11.214;2023-03-12T03:00:17;2.10;99.90
25248;DHT22;13191;47.472;11.214;2023-03-12T03:02:43;2.10;99.90
25248;DHT22;13191;47.472;11.214;2023-03-12T03:05:09;2.10;99.90
25248;DHT22;13191;47.472;11.214;2023-03-12T03:07:34;2.10;99.90
25248;DHT22;13191;47.472;11.214;2023-03-12T03:10:00;2.10;99.90
25248;DHT22;13191;47.472;11.214;2023-03-12T03:12:32;2.10;99.90
25248;DHT22;13191;47.472;11.214;2023-03-12T03:14:58;2.10;99.90
25248;DHT22;13191;47.472;11.214;2023-03-12T03:17:24;2.10;99.90
25248;DHT22;13191;47.472;11.214;2023-03-12T03:19:50;2.10;99.90
25248;DHT22;13191;47.472;11.214;2023-03-12T03:22:16;2.10;99.90
25248;DHT22;13191;47.472;11.214;2023-03-12T03:24:42;2.10;99.90
25248;DHT22;13191;47.472;11.214;2023-03-12T03:27:07;2.20;99.90
25248;DHT22;13191;47.472;11.214;2023-03-12T03:29:33;2.20;99.90
25248;DHT22;13191;47.472;11.214;2023-03-12T03:31:58;2.30;99.90
25248;DHT22;13191;47.472;11.214;2023-03-12T03:34:24;2.30;99.90
25248;DHT22;13191;47.472;11.214;2023-03-12T03:36:49;2.20;99.90
25248;DHT22;13191;47.472;11.214;2023-03-12T03:39:15;2.20;99.90
25248;DHT22;13191;47.472;11.214;2023-03-12T03:41:40;2.30;99.90
25248;DHT22;13191;47.472;11.214;2023-03-12T03:44:06;2.20;99.90
25248;DHT22;13191;47.472;11.214;2023-03-12T03:46:32;2.20;99.90
25248;DHT22;13191;47.472;11.214;2023-03-12T03:48:59;2.20;99.90
25248;DHT22;13191;47.472;11.214;2023-03-12T03:51:25;2.20;99.90
25248;DHT22;13191;47.472;11.214;2023-03-12T03:53:50;2.20;99.90
25248;DHT22;13191;47.472;11.214;2023-03-12T03:56:16;2.20;99.90
25248;DHT22;13191;47.472;11.214;2023-03-12T03:58:41;2.20;99.90
25248;DHT22;13191;47.472;11.214;2023-03-12T04:01:07;2.20;99.90
25248;DHT22;13191;47.472;11.214;2023-03-12T04:03:32;2.20;99.90
25248;DHT22;13191;47.472;11.214;2023-03-12T04:05:59;2.20;99.90
25248;DHT22;13191;47.472;11.214;2023-03-12T04:08:25;2.20;99.90
25248;DHT22;13191;47.472;11.214;2023-03-12T04:10:50;2.20;99.90
25248;DHT22;13191;47.472;11.214;2023-03-12T04:13:16;2.20;99.90
25248;DHT22;13191;47.472;11.214;2023-03-12T04:15:47;2.20;99.90
25248;DHT22;13191;47.472;11.214;2023-03-12T04:18:13;2.20;99.90
25248;DHT22;13191;47.472;11.214;2023-03-12T04:20:39;2.20;99.90
25248;DHT22;13191;47.472;11.214;2023-03-12T04:23:04;2.20;99.90
25248;DHT22;13191;47.472;11.214;2023-03-12T04:25:30;2.20;99.90
25248;DHT22;13191;47.472;11.214;2023-03-12T04:27:55;2.10;99.90
25248;DHT22;13191;47.472;11.214;2023-03-12T04:30:21;2.10;99.90
25248;DHT22;13191;47.472;11.214;2023-03-12T04:32:46;2.10;99.90
25248;DHT22;13191;47.472;11.214;2023-03-12T04:35:12;2.10;99.90
25248;DHT22;13191;47.472;11.214;2023-03-12T04:37:37;2.10;99.90
25248;DHT22;13191;47.472;11.214;2023-03-12T04:40:03;2.20;99.90
25248;DHT22;13191;47.472;11.214;2023-03-12T04:42:32;2.10;99.90
25248;DHT22;13191;47.472;11.214;2023-03-12T04:44:58;2.10;99.90
25248;DHT22;13191;47.472;11.214;2023-03-12T04:47:23;2.10;99.90
25248;DHT22;13191;47.472;11.214;2023-03-12T04:49:49;2.10;99.90
25248;DHT22;13191;47.472;11.214;2023-03-12T04:52:14;2.10;99.90
25248;DHT22;13191;47.472;11.214;2023-03-12T04:54:42;2.10;99.90
25248;DHT22;13191;47.472;11.214;2023-03-12T04:57:09;2.10;99.90
25248;DHT22;13191;47.472;11.214;2023-03-12T04:59:34;2.10;99.90
25248;DHT22;13191;47.472;11.214;2023-03-12T05:01:59;2.10;99.90
25248;DHT22;13191;47.472;11.214;2023-03-12T05:04:25;2.00;99.90
25248;DHT22;13191;47.472;11.214;2023-03-12T05:06:50;2.00;99.90
25248;DHT22;13191;47.472;11.214;2023-03-12T05:09:16;1.90;99.90
25248;DHT22;13191;47.472;11.214;2023-03-12T05:11:41;1.90;99.90
25248;DHT22;13191;47.472;11.214;2023-03-12T05:14:08;1.90;99.90
25248;DHT22;13191;47.472;11.214;2023-03-12T05:16:33;2.00;99.90
25248;DHT22;13191;47.472;11.214;2023-03-12T05:18:59;1.90;99.90
25248;DHT22;13191;47.472;11.214;2023-03-12T05:21:26;1.90;99.90
25248;DHT22;13191;47.472;11.214;2023-03-12T05:23:52;1.90;99.90
25248;DHT22;13191;47.472;11.214;2023-03-12T05:26:20;1.90;99.90
25248;DHT22;13191;47.472;11.214;2023-03-12T05:28:45;2.00;99.90
25248;DHT22;13191;47.472;11.214;2023-03-12T05:31:11;2.00;99.90
25248;DHT22;13191;47.472;11.214;2023-03-12T05:33:37;2.00;99.90
25248;DHT22;13191;47.472;11.214;2023-03-12T05:36:03;2.00;99.90
25248;DHT22;13191;47.472;11.214;2023-03-12T05:38:28;2.00;99.90
25248;DHT22;13191;47.472;11.214;2023-03-12T05:40:54;2.00;99.90
25248;DHT22;13191;47.472;11.214;2023-03-12T05:43:20;2.10;99.90
25248;DHT22;13191;47.472;11.214;2023-03-12T05:45:46;2.10;99.90
25248;DHT22;13191;47.472;11.214;2023-03-12T05:48:11;2.10;99.90
25248;DHT22;13191;47.472;11.214;2023-03-12T05:50:37;2.00;99.90
25248;DHT22;13191;47.472;11.214;2023-03-12T05:53:02;2.10;99.90
25248;DHT22;13191;47.472;11.214;2023-03-12T05:55:28;2.10;99.90
25248;DHT22;13191;47.472;11.214;2023-03-12T05:57:53;2.10;99.90
25248;DHT22;13191;47.472;11.214;2023-03-12T06:00:19;2.10;99.90
25248;DHT22;13191;47.472;11.214;2023-03-12T06:02:45;2.10;99.90
25248;DHT22;13191;47.472;11.214;2023-03-12T06:05:10;2.10;99.90
25248;DHT22;13191;47.472;11.214;2023-03-12T06:07:36;2.10;99.90
25248;DHT22;13191;47.472;11.214;2023-03-12T06:10:01;2.00;99.90
25248;DHT22;13191;47.472;11.214;2023-03-12T06:12:27;2.00;99.90
25248;DHT22;13191;47.472;11.214;2023-03-12T06:14:53;2.00;99.90
25248;DHT22;13191;47.472;11.214;2023-03-12T06:17:18;2.00;99.90
25248;DHT22;13191;47.472;11.214;2023-03-12T06:19:44;2.00;99.90
25248;DHT22;13191;47.472;11.214;2023-03-12T06:22:09;2.00;99.90
25248;DHT22;13191;47.472;11.214;2023-03-12T06:24:35;2.00;99.90
25248;DHT22;13191;47.472;11.214;2023-03-12T06:27:00;2.00;99.90
25248;DHT22;13191;47.472;11.214;2023-03-12T06:29:27;2.00;99.90
25248;DHT22;13191;47.472;11.214;2023-03-12T06:31:52;2.10;99.90
25248;DHT22;13191;47.472;11.214;2023-03-12T06:34:18;2.10;99.90
25248;DHT22;13191;47.472;11.214;2023-03-12T06:36:43;2.20;99.90
25248;DHT22;13191;47.472;11.214;2023-03-12T06:39:09;2.20;99.90
25248;DHT22;13191;47.472;11.214;2023-03-12T06:41:35;2.20;99.90
25248;DHT22;13191;47.472;11.214;2023-03-12T06:44:00;2.30;99.90
25248;DHT22;13191;47.472;11.214;2023-03-12T06:46:30;2.30;99.90
25248;DHT22;13191;47.472;11.214;2023-03-12T06:48:55;2.30;99.90
25248;DHT22;13191;47.472;11.214;2023-03-12T06:51:21;2.30;99.90
25248;DHT22;13191;47.472;11.214;2023-03-12T06:53:46;2.30;99.90
25248;DHT22;13191;47.472;11.214;2023-03-12T06:56:12;2.40;99.90
25248;DHT22;13191;47.472;11.214;2023-03-12T06:58:38;2.40;99.90
25248;DHT22;13191;47.472;11.214;2023-03-12T07:01:04;2.40;99.90
25248;DHT22;13191;47.472;11.214;2023-03-12T07:03:30;2.40;99.90
25248;DHT22;13191;47.472;11.214;2023-03-12T07:05:56;2.50;99.90
25248;DHT22;13191;47.472;11.214;2023-03-12T07:08:22;2.60;99.90
25248;DHT22;13191;47.472;11.214;2023-03-12T07:10:47;2.60;99.90
25248;DHT22;13191;47.472;11.214;2023-03-12T07:13:13;2.60;99.90
25248;DHT22;13191;47.472;11.214;2023-03-12T07:15:39;2.70;99.90
25248;DHT22;13191;47.472;11.214;2023-03-12T07:18:08;2.70;99.90
25248;DHT22;13191;47.472;11.214;2023-03-12T07:20:35;2.70;99.90
25248;DHT22;13191;47.472;11.214;2023-03-12T07:23:00;2.70;99.90
25248;DHT22;13191;47.472;11.214;2023-03-12T07:25:26;2.80;99.90
25248;DHT22;13191;47.472;11.214;2023-03-12T07:27:51;2.80;99.90
25248;DHT22;13191;47.472;11.214;2023-03-12T07:30:17;2.80;99.90
25248;DHT22;13191;47.472;11.214;2023-03-12T07:32:42;2.80;99.90
25248;DHT22;13191;47.472;11.214;2023-03-12T07:35:08;2.80;99.90
25248;DHT22;13191;47.472;11.214;2023-03-12T07:37:33;2.90;99.90
25248;DHT22;13191;47.472;11.214;2023-03-12T07:40:02;2.80;99.90
25248;DHT22;13191;47.472;11.214;2023-03-12T07:42:31;2.90;99.90
25248;DHT22;13191;47.472;11.214;2023-03-12T07:44:57;3.00;99.90
25248;DHT22;13191;47.472;11.214;2023-03-12T07:47:22;3.00;99.90
25248;DHT22;13191;47.472;11.214;2023-03-12T07:49:48;3.10;99.90
25248;DHT22;13191;47.472;11.214;2023-03-12T07:52:13;3.10;99.90
25248;DHT22;13191;47.472;11.214;2023-03-12T07:54:39;3.10;99.90
25248;DHT22;13191;47.472;11.214;2023-03-12T07:57:05;3.10;99.90
25248;DHT22;13191;47.472;11.214;2023-03-12T07:59:31;3.10;99.90
25248;DHT22;13191;47.472;11.214;2023-03-12T08:01:56;3.10;99.90
25248;DHT22;13191;47.472;11.214;2023-03-12T08:04:22;3.10;99.90
25248;DHT22;13191;47.472;11.214;2023-03-12T08:06:47;3.00;99.90
25248;DHT22;13191;47.472;11.214;2023-03-12T08:09:16;3.00;99.90
25248;DHT22;13191;47.472;11.214;2023-03-12T08:11:44;3.00;99.90
25248;DHT22;13191;47.472;11.214;2023-03-12T08:14:10;3.10;99.90
25248;DHT22;13191;47.472;11.214;2023-03-12T08:16:35;3.10;99.90
25248;DHT22;13191;47.472;11.214;2023-03-12T08:19:01;3.20;99.90
25248;DHT22;13191;47.472;11.214;2023-03-12T08:21:26;3.30;99.90
25248;DHT22;13191;47.472;11.214;2023-03-12T08:23:52;3.30;99.90
25248;DHT22;13191;47.472;11.214;2023-03-12T08:26:17;3.30;99.90
25248;DHT22;13191;47.472;11.214;2023-03-12T08:28:43;3.40;99.90
25248;DHT22;13191;47.472;11.214;2023-03-12T08:31:08;3.40;99.90
25248;DHT22;13191;47.472;11.214;2023-03-12T08:33:34;3.50;99.90
25248;DHT22;13191;47.472;11.214;2023-03-12T08:36:00;3.50;99.90
25248;DHT22;13191;47.472;11.214;2023-03-12T08:38:25;3.60;99.90
25248;DHT22;13191;47.472;11.214;2023-03-12T08:40:58;3.70;99.90
25248;DHT22;13191;47.472;11.214;2023-03-12T08:43:24;3.70;99.90
25248;DHT22;13191;47.472;11.214;2023-03-12T08:45:53;3.70;99.90
25248;DHT22;13191;47.472;11.214;2023-03-12T08:48:19;3.90;99.90
25248;DHT22;13191;47.472;11.214;2023-03-12T08:50:45;3.80;99.90
25248;DHT22;13191;47.472;11.214;2023-03-12T08:53:10;3.80;99.90
25248;DHT22;13191;47.472;11.214;2023-03-12T08:55:36;3.90;99.90
25248;DHT22;13191;47.472;11.214;2023-03-12T08:58:01;4.00;99.90
25248;DHT22;13191;47.472;11.214;2023-03-12T09:00:27;4.10;99.90
25248;DHT22;13191;47.472;11.214;2023-03-12T09:02:53;4.00;99.90
25248;DHT22;13191;47.472;11.214;2023-03-12T09:05:25;4.00;99.90
25248;DHT22;13191;47.472;11.214;2023-03-12T09:07:54;4.20;99.90
25248;DHT22;13191;47.472;11.214;2023-03-12T09:10:20;4.20;99.90
25248;DHT22;13191;47.472;11.214;2023-03-12T09:12:45;4.20;99.90
25248;DHT22;13191;47.472;11.214;2023-03-12T09:15:11;4.20;99.90
25248;DHT22;13191;47.472;11.214;2023-03-12T09:17:36;4.20;99.90
25248;DHT22;13191;47.472;11.214;2023-03-12T09:20:04;4.30;99.90
25248;DHT22;13191;47.472;11.214;2023-03-12T09:22:33;4.10;99.90
25248;DHT22;13191;47.472;11.214;2023-03-12T09:25:02;4.10;99.90
25248;DHT22;13191;47.472;11.214;2023-03-12T09:27:27;4.20;99.90
25248;DHT22;13191;47.472;11.214;2023-03-12T09:29:53;4.20;99.90
25248;DHT22;13191;47.472;11.214;2023-03-12T09:32:19;4.20;99.90
25248;DHT22;13191;47.472;11.214;2023-03-12T09:34:44;4.30;99.90
25248;DHT22;13191;47.472;11.214;2023-03-12T09:37:10;4.40;99.90
25248;DHT22;13191;47.472;11.214;2023-03-12T09:39:35;4.50;99.90
25248;DHT22;13191;47.472;11.214;2023-03-12T09:42:02;4.60;99.90
25248;DHT22;13191;47.472;11.214;2023-03-12T09:44:29;4.60;99.90
25248;DHT22;13191;47.472;11.214;2023-03-12T09:46:57;4.60;99.90
25248;DHT22;13191;47.472;11.214;2023-03-12T09:51:50;4.90;99.90
25248;DHT22;13191;47.472;11.214;2023-03-12T09:54:21;5.00;99.90
25248;DHT22;13191;47.472;11.214;2023-03-12T09:56:49;5.00;99.90
25248;DHT22;13191;47.472;11.214;2023-03-12T09:59:15;5.10;99.90
25248;DHT22;13191;47.472;11.214;2023-03-12T10:01:43;5.20;99.90
25248;DHT22;13191;47.472;11.214;2023-03-12T10:07:01;5.20;99.90
25248;DHT22;13191;47.472;11.214;2023-03-12T10:12:07;5.20;99.90
25248;DHT22;13191;47.472;11.214;2023-03-12T10:17:23;5.00;99.90
25248;DHT22;13191;47.472;11.214;2023-03-12T10:22:37;5.20;99.90
25248;DHT22;13191;47.472;11.214;2023-03-12T10:27:32;5.40;99.90
25248;DHT22;13191;47.472;11.214;2023-03-12T10:29:59;5.50;99.90
25248;DHT22;13191;47.472;11.214;2023-03-12T10:32:26;5.50;99.90
25248;DHT22;13191;47.472;11.214;2023-03-12T10:34:56;5.60;99.90
25248;DHT22;13191;47.472;11.214;2023-03-12T10:37:24;5.80;99.90
25248;DHT22;13191;47.472;11.214;2023-03-12T10:39:50;5.90;99.90
25248;DHT22;13191;47.472;11.214;2023-03-12T10:42:18;6.00;99.90
25248;DHT22;13191;47.472;11.214;2023-03-12T10:44:45;6.10;99.90
25248;DHT22;13191;47.472;11.214;2023-03-12T10:47:20;6.10;99.90
25248;DHT22;13191;47.472;11.214;2023-03-12T10:49:49;6.10;99.90
25248;DHT22;13191;47.472;11.214;2023-03-12T10:52:18;6.10;99.90
25248;DHT22;13191;47.472;11.214;2023-03-12T10:54:45;6.10;99.90
25248;DHT22;13191;47.472;11.214;2023-03-12T10:57:11;6.10;99.90
25248;DHT22;13191;47.472;11.214;2023-03-12T10:59:38;6.10;99.90
25248;DHT22;13191;47.472;11.214;2023-03-12T11:02:40;6.00;99.90
25248;DHT22;13191;47.472;11.214;2023-03-12T11:04:58;6.00;99.90
25248;DHT22;13191;47.472;11.214;2023-03-12T11:07:33;6.10;99.90
25248;DHT22;13191;47.472;11.214;2023-03-12T11:12:31;6.10;99.90
25248;DHT22;13191;47.472;11.214;2023-03-12T11:14:57;6.20;99.90
25248;DHT22;13191;47.472;11.214;2023-03-12T11:17:23;6.30;99.90
25248;DHT22;13191;47.472;11.214;2023-03-12T11:19:49;6.20;99.90
25248;DHT22;13191;47.472;11.214;2023-03-12T11:22:25;6.30;99.90
25248;DHT22;13191;47.472;11.214;2023-03-12T11:25:01;6.30;99.90
25248;DHT22;13191;47.472;11.214;2023-03-12T11:27:44;6.40;99.90
25248;DHT22;13191;47.472;11.214;2023-03-12T11:30:14;6.40;99.90
25248;DHT22;13191;47.472;11.214;2023-03-12T11:32:45;6.40;99.90
25248;DHT22;13191;47.472;11.214;2023-03-12T11:35:12;6.40;99.90
25248;DHT22;13191;47.472;11.214;2023-03-12T11:37:41;6.50;99.90
25248;DHT22;13191;47.472;11.214;2023-03-12T11:42:59;6.60;99.90
25248;DHT22;13191;47.472;11.214;2023-03-12T11:45:26;6.60;99.90
25248;DHT22;13191;47.472;11.214;2023-03-12T11:53:03;6.80;99.90
25248;DHT22;13191;47.472;11.214;2023-03-12T11:58:24;7.00;99.90
25248;DHT22;13191;47.472;11.214;2023-03-12T12:00:57;7.10;99.90
25248;DHT22;13191;47.472;11.214;2023-03-12T12:05:58;7.10;99.90
25248;DHT22;13191;47.472;11.214;2023-03-12T12:13:31;7.00;99.90
25248;DHT22;13191;47.472;11.214;2023-03-12T12:16:08;6.90;99.90
25248;DHT22;13191;47.472;11.214;2023-03-12T12:18:43;6.80;99.90
25248;DHT22;13191;47.472;11.214;2023-03-12T12:21:26;6.90;99.90
25248;DHT22;13191;47.472;11.214;2023-03-12T12:24:06;6.80;99.90
25248;DHT22;13191;47.472;11.214;2023-03-12T12:26:37;6.90;99.90
25248;DHT22;13191;47.472;11.214;2023-03-12T12:29:18;6.90;99.90
25248;DHT22;13191;47.472;11.214;2023-03-12T12:39:37;6.90;99.90
25248;DHT22;13191;47.472;11.214;2023-03-12T12:42:05;7.00;99.90
25248;DHT22;13191;47.472;11.214;2023-03-12T12:44:33;7.10;99.90
25248;DHT22;13191;47.472;11.214;2023-03-12T12:47:01;7.20;99.90
25248;DHT22;13191;47.472;11.214;2023-03-12T12:52:16;7.40;99.90
25248;DHT22;13191;47.472;11.214;2023-03-12T12:57:46;7.50;99.90
25248;DHT22;13191;47.472;11.214;2023-03-12T13:02:58;7.50;99.90
25248;DHT22;13191;47.472;11.214;2023-03-12T13:05:28;7.60;99.90
25248;DHT22;13191;47.472;11.214;2023-03-12T13:08:05;7.70;99.90
25248;DHT22;13191;47.472;11.214;2023-03-12T13:12:58;7.70;99.90
25248;DHT22;13191;47.472;11.214;2023-03-12T13:20:46;7.70;99.90
25248;DHT22;13191;47.472;11.214;2023-03-12T13:28:25;7.70;99.90
25248;DHT22;13191;47.472;11.214;2023-03-12T13:30:47;7.70;99.90
25248;DHT22;13191;47.472;11.214;2023-03-12T13:33:14;7.60;99.90
25248;DHT22;13191;47.472;11.214;2023-03-12T13:35:40;7.70;99.90
25248;DHT22;13191;47.472;11.214;2023-03-12T13:38:09;7.70;99.90
25248;DHT22;13191;47.472;11.214;2023-03-12T13:40:37;7.70;99.90
25248;DHT22;13191;47.472;11.214;2023-03-12T13:45:32;7.70;99.90
25248;DHT22;13191;47.472;11.214;2023-03-12T13:48:00;7.70;99.90
25248;DHT22;13191;47.472;11.214;2023-03-12T13:50:26;7.70;99.90
25248;DHT22;13191;47.472;11.214;2023-03-12T13:53:01;7.80;99.90
25248;DHT22;13191;47.472;11.214;2023-03-12T13:55:28;7.80;99.90
25248;DHT22;13191;47.472;11.214;2023-03-12T13:57:55;7.80;99.90
25248;DHT22;13191;47.472;11.214;2023-03-12T14:00:29;7.90;99.90
25248;DHT22;13191;47.472;11.214;2023-03-12T14:05:23;7.90;99.90
25248;DHT22;13191;47.472;11.214;2023-03-12T14:07:52;7.90;99.90
25248;DHT22;13191;47.472;11.214;2023-03-12T14:13:04;7.80;99.90
25248;DHT22;13191;47.472;11.214;2023-03-12T14:15:51;7.90;99.90
25248;DHT22;13191;47.472;11.214;2023-03-12T14:18:22;7.90;99.90
25248;DHT22;13191;47.472;11.214;2023-03-12T14:20:53;7.90;99.90
25248;DHT22;13191;47.472;11.214;2023-03-12T14:23:20;8.00;99.90
25248;DHT22;13191;47.472;11.214;2023-03-12T14:25:47;8.20;99.90
25248;DHT22;13191;47.472;11.214;2023-03-12T14:28:15;8.50;99.90
25248;DHT22;13191;47.472;11.214;2023-03-12T14:33:16;8.60;99.90
25248;DHT22;13191;47.472;11.214;2023-03-12T14:35:44;8.70;99.90
25248;DHT22;13191;47.472;11.214;2023-03-12T14:43:25;8.70;99.90
25248;DHT22;13191;47.472;11.214;2023-03-12T14:45:55;8.70;99.90
25248;DHT22;13191;47.472;11.214;2023-03-12T14:48:21;8.60;99.90
25248;DHT22;13191;47.472;11.214;2023-03-12T14:50:47;8.70;99.90
25248;DHT22;13191;47.472;11.214;2023-03-12T14:53:20;8.60;99.90
25248;DHT22;13191;47.472;11.214;2023-03-12T14:55:58;8.70;99.90
25248;DHT22;13191;47.472;11.214;2023-03-12T14:58:24;8.60;99.90
25248;DHT22;13191;47.472;11.214;2023-03-12T15:01:04;8.80;99.90
25248;DHT22;13191;47.472;11.214;2023-03-12T15:03:29;8.80;99.90
25248;DHT22;13191;47.472;11.214;2023-03-12T15:05:57;8.80;99.90
25248;DHT22;13191;47.472;11.214;2023-03-12T15:08:24;8.90;99.90
25248;DHT22;13191;47.472;11.214;2023-03-12T15:10:54;8.90;99.90
25248;DHT22;13191;47.472;11.214;2023-03-12T15:13:20;8.90;99.90
25248;DHT22;13191;47.472;11.214;2023-03-12T15:15:46;8.70;99.90
25248;DHT22;13191;47.472;11.214;2023-03-12T15:18:17;8.50;99.90
25248;DHT22;13191;47.472;11.214;2023-03-12T15:20:43;8.40;99.90
25248;DHT22;13191;47.472;11.214;2023-03-12T15:23:10;8.50;99.90
25248;DHT22;13191;47.472;11.214;2023-03-12T15:25:37;8.40;99.90
25248;DHT22;13191;47.472;11.214;2023-03-12T15:30:45;8.40;99.90
25248;DHT22;13191;47.472;11.214;2023-03-12T15:35:40;8.40;99.90
25248;DHT22;13191;47.472;11.214;2023-03-12T15:38:12;8.40;99.90
25248;DHT22;13191;47.472;11.214;2023-03-12T15:40:38;8.20;99.90
25248;DHT22;13191;47.472;11.214;2023-03-12T15:43:03;8.10;99.90
25248;DHT22;13191;47.472;11.214;2023-03-12T15:45:35;8.00;99.90
25248;DHT22;13191;47.472;11.214;2023-03-12T15:48:02;8.00;99.90
25248;DHT22;13191;47.472;11.214;2023-03-12T15:50:36;7.90;99.90
25248;DHT22;13191;47.472;11.214;2023-03-12T15:55:34;7.80;99.90
25248;DHT22;13191;47.472;11.214;2023-03-12T15:58:00;7.70;99.90
25248;DHT22;13191;47.472;11.214;2023-03-12T16:00:27;7.70;99.90
25248;DHT22;13191;47.472;11.214;2023-03-12T16:03:00;7.80;99.90
25248;DHT22;13191;47.472;11.214;2023-03-12T16:05:28;8.00;99.90
25248;DHT22;13191;47.472;11.214;2023-03-12T16:07:54;8.10;99.90
25248;DHT22;13191;47.472;11.214;2023-03-12T16:10:20;8.20;99.90
25248;DHT22;13191;47.472;11.214;2023-03-12T16:12:46;8.40;99.90
25248;DHT22;13191;47.472;11.214;2023-03-12T16:15:14;8.90;99.90
25248;DHT22;13191;47.472;11.214;2023-03-12T16:17:40;9.00;99.90
25248;DHT22;13191;47.472;11.214;2023-03-12T16:20:07;9.00;99.90
25248;DHT22;13191;47.472;11.214;2023-03-12T16:22:35;9.30;99.90
25248;DHT22;13191;47.472;11.214;2023-03-12T16:25:02;9.50;99.90
25248;DHT22;13191;47.472;11.214;2023-03-12T16:27:27;9.60;99.90
25248;DHT22;13191;47.472;11.214;2023-03-12T16:29:53;9.70;99.90
25248;DHT22;13191;47.472;11.214;2023-03-12T16:32:18;9.50;99.90
25248;DHT22;13191;47.472;11.214;2023-03-12T16:34:44;9.50;99.90
25248;DHT22;13191;47.472;11.214;2023-03-12T16:37:10;9.40;99.90
25248;DHT22;13191;47.472;11.214;2023-03-12T16:39:35;9.30;99.90
25248;DHT22;13191;47.472;11.214;2023-03-12T16:42:01;9.00;99.90
25248;DHT22;13191;47.472;11.214;2023-03-12T16:44:28;8.70;99.90
25248;DHT22;13191;47.472;11.214;2023-03-12T16:46:55;8.60;99.90
25248;DHT22;13191;47.472;11.214;2023-03-12T16:49:20;8.30;99.90
25248;DHT22;13191;47.472;11.214;2023-03-12T16:51:46;8.10;99.90
25248;DHT22;13191;47.472;11.214;2023-03-12T16:54:12;8.00;99.90
25248;DHT22;13191;47.472;11.214;2023-03-12T16:56:40;7.80;99.90
25248;DHT22;13191;47.472;11.214;2023-03-12T16:59:09;7.60;99.90
25248;DHT22;13191;47.472;11.214;2023-03-12T17:01:36;7.50;99.90
25248;DHT22;13191;47.472;11.214;2023-03-12T17:04:02;7.30;99.90
25248;DHT22;13191;47.472;11.214;2023-03-12T17:06:29;7.30;99.90
25248;DHT22;13191;47.472;11.214;2023-03-12T17:08:54;7.20;99.90